createdAt,value
2023-05-21T00:00:41.866Z,100.00
2023-05-21T00:03:14.302Z,100.00
2023-05-21T00:05:45.366Z,100.00
2023-05-21T00:08:14.239Z,100.00
2023-05-21T00:10:42.638Z,100.00
2023-05-21T00:13:10.969Z,100.00
2023-05-21T00:15:39.606Z,100.00
2023-05-21T00:18:08.068Z,100.00
2023-05-21T00:20:37.328Z,100.00
2023-05-21T00:23:06.982Z,100.00
2023-05-21T00:25:35.504Z,100.00
2023-05-21T00:28:04.150Z,100.00
2023-05-21T00:30:32.352Z,100.00
2023-05-21T00:33:02.882Z,100.00
2023-05-21T00:35:31.409Z,100.00
2023-05-21T00:38:00.560Z,100.00
2023-05-21T00:40:30.189Z,100.00
2023-05-21T00:42:58.519Z,100.00
2023-05-21T00:45:26.786Z,100.00
2023-05-21T00:47:55.938Z,100.00
2023-05-21T00:50:24.913Z,100.00
2023-05-21T00:52:53.468Z,100.00
2023-05-21T00:55:21.890Z,100.00
2023-05-21T00:57:51.986Z,100.00
2023-05-21T01:00:21.050Z,100.00
2023-05-21T01:02:50.098Z,100.00
2023-05-21T01:05:18.533Z,100.00
2023-05-21T01:07:47.008Z,100.00
2023-05-21T01:10:15.619Z,100.00
2023-05-21T01:12:45.778Z,100.00
2023-05-21T01:15:15.736Z,100.00
2023-05-21T01:17:46.254Z,100.00
2023-05-21T01:20:18.357Z,100.00
2023-05-21T01:22:54.317Z,100.00
2023-05-21T01:25:23.257Z,100.00
2023-05-21T01:27:51.728Z,100.00
2023-05-21T01:30:22.181Z,100.00
2023-05-21T01:32:58.082Z,100.00
2023-05-21T01:35:31.667Z,100.00
2023-05-21T01:38:08.435Z,100.00
2023-05-21T01:40:41.235Z,100.00
2023-05-21T01:43:10.809Z,100.00
2023-05-21T01:45:42.065Z,100.00
2023-05-21T01:48:12.723Z,100.00
2023-05-21T01:50:42.981Z,100.00
2023-05-21T01:53:12.922Z,100.00
2023-05-21T01:55:42.252Z,100.00
2023-05-21T01:58:11.177Z,100.00
2023-05-21T02:00:40.177Z,100.00
2023-05-21T02:03:09.066Z,100.00
2023-05-21T02:05:37.897Z,100.00
2023-05-21T02:08:08.665Z,100.00
2023-05-21T02:10:38.465Z,100.00
2023-05-21T02:13:06.759Z,100.00
2023-05-21T02:15:35.669Z,100.00
2023-05-21T02:18:04.697Z,100.00
2023-05-21T02:20:33.412Z,100.00
2023-05-21T02:23:01.726Z,100.00
2023-05-21T02:25:30.020Z,100.00
2023-05-21T02:27:59.776Z,100.00
2023-05-21T02:30:28.233Z,100.00
2023-05-21T02:32:59.024Z,100.00
2023-05-21T02:35:27.617Z,100.00
2023-05-21T02:37:59.397Z,100.00
2023-05-21T02:40:27.896Z,100.00
2023-05-21T02:42:56.108Z,100.00
2023-05-21T02:45:26.020Z,100.00
2023-05-21T02:47:54.255Z,100.00
2023-05-21T02:50:23.528Z,100.00
2023-05-21T02:52:52.407Z,100.00
2023-05-21T02:55:20.928Z,100.00
2023-05-21T02:57:49.614Z,100.00
2023-05-21T03:00:18.242Z,100.00
2023-05-21T03:02:48.174Z,100.00
2023-05-21T03:05:16.611Z,100.00
2023-05-21T03:07:44.764Z,100.00
2023-05-21T03:10:13.009Z,100.00
2023-05-21T03:12:41.263Z,100.00
2023-05-21T03:15:11.102Z,100.00
2023-05-21T03:17:39.615Z,100.00
2023-05-21T03:20:16.474Z,100.00
2023-05-21T03:22:45.155Z,100.00
2023-05-21T03:25:13.806Z,100.00
2023-05-21T03:27:42.172Z,100.00
2023-05-21T03:30:11.168Z,100.00
2023-05-21T03:32:41.577Z,100.00
2023-05-21T03:35:11.922Z,100.00
2023-05-21T03:37:40.157Z,100.00
2023-05-21T03:40:09.652Z,100.00
2023-05-21T03:42:37.821Z,100.00
2023-05-21T03:45:06.662Z,100.00
2023-05-21T03:47:36.177Z,100.00
2023-05-21T03:50:05.853Z,100.00
2023-05-21T03:52:35.559Z,100.00
2023-05-21T03:55:03.919Z,100.00
2023-05-21T03:57:32.305Z,100.00
2023-05-21T04:00:00.925Z,100.00
2023-05-21T04:02:29.271Z,100.00
2023-05-21T04:04:57.601Z,100.00
2023-05-21T04:07:27.315Z,100.00
2023-05-21T04:09:57.026Z,100.00
2023-05-21T04:12:25.341Z,100.00
2023-05-21T04:14:53.794Z,100.00
2023-05-21T04:17:22.115Z,100.00
2023-05-21T04:19:50.426Z,100.00
2023-05-21T04:22:18.608Z,100.00
2023-05-21T04:24:48.979Z,100.00
2023-05-21T04:27:19.403Z,100.00
2023-05-21T04:29:50.617Z,100.00
2023-05-21T04:32:19.159Z,100.00
2023-05-21T04:34:47.438Z,100.00
2023-05-21T04:37:18.023Z,100.00
2023-05-21T04:39:47.056Z,100.00
2023-05-21T04:42:15.473Z,100.00
2023-05-21T04:44:45.162Z,100.00
2023-05-21T04:47:15.114Z,100.00
2023-05-21T04:49:43.327Z,100.00
2023-05-21T04:52:12.014Z,100.00
2023-05-21T04:54:42.195Z,100.00
2023-05-21T04:57:10.517Z,100.00
2023-05-21T04:59:39.414Z,100.00
2023-05-21T05:02:09.059Z,100.00
2023-05-21T05:04:37.256Z,100.00
2023-05-21T05:07:05.738Z,100.00
2023-05-21T05:09:34.052Z,100.00
2023-05-21T05:12:02.337Z,100.00
2023-05-21T05:14:30.635Z,100.00
2023-05-21T05:17:00.936Z,100.00
2023-05-21T05:19:32.140Z,100.00
2023-05-21T05:22:00.522Z,100.00
2023-05-21T05:24:28.773Z,100.00
2023-05-21T05:26:56.992Z,100.00
2023-05-21T05:29:25.283Z,100.00
2023-05-21T05:31:53.518Z,100.00
2023-05-21T05:34:21.816Z,100.00
2023-05-21T05:36:51.650Z,100.00
2023-05-21T05:39:19.968Z,100.00
2023-05-21T05:41:48.419Z,100.00
2023-05-21T05:44:16.713Z,100.00
2023-05-21T05:46:45.205Z,100.00
2023-05-21T05:49:13.833Z,100.00
2023-05-21T05:51:42.405Z,100.00
2023-05-21T05:54:12.043Z,100.00
2023-05-21T05:56:40.267Z,100.00
2023-05-21T05:59:08.574Z,100.00
2023-05-21T06:01:36.932Z,100.00
2023-05-21T06:04:05.400Z,100.00
2023-05-21T06:06:34.926Z,100.00
2023-05-21T06:09:03.229Z,100.00
2023-05-21T06:11:32.901Z,100.00
2023-05-21T06:14:02.178Z,100.00
2023-05-21T06:16:31.594Z,100.00
2023-05-21T06:19:00.170Z,100.00
2023-05-21T06:21:28.730Z,100.00
2023-05-21T06:23:57.118Z,100.00
2023-05-21T06:26:25.395Z,100.00
2023-05-21T06:28:55.228Z,100.00
2023-05-21T06:31:23.463Z,100.00
2023-05-21T06:33:52.132Z,100.00
2023-05-21T06:36:20.515Z,100.00
2023-05-21T06:38:48.726Z,100.00
2023-05-21T06:41:17.163Z,100.00
2023-05-21T06:43:45.448Z,100.00
2023-05-21T06:46:15.116Z,100.00
2023-05-21T06:48:43.806Z,100.00
2023-05-21T06:51:12.043Z,100.00
2023-05-21T06:53:40.273Z,100.00
2023-05-21T06:56:08.879Z,100.00
2023-05-21T06:58:37.134Z,100.00
2023-05-21T07:01:05.512Z,100.00
2023-05-21T07:03:35.313Z,100.00
2023-05-21T07:06:03.637Z,100.00
2023-05-21T07:08:31.913Z,100.00
2023-05-21T07:11:00.243Z,100.00
2023-05-21T07:13:28.601Z,100.00
2023-05-21T07:15:56.909Z,100.00
2023-05-21T07:18:25.126Z,100.00
2023-05-21T07:20:55.042Z,100.00
2023-05-21T07:23:23.506Z,100.00
2023-05-21T07:25:52.100Z,100.00
2023-05-21T07:28:20.586Z,100.00
2023-05-21T07:30:48.845Z,100.00
2023-05-21T07:33:17.443Z,100.00
2023-05-21T07:35:45.810Z,100.00
2023-05-21T07:38:15.584Z,100.00
2023-05-21T07:40:43.811Z,73.42
2023-05-21T07:43:12.037Z,70.92
2023-05-21T07:45:40.385Z,70.79
2023-05-21T07:48:08.743Z,72.45
2023-05-21T07:50:37.906Z,72.21
2023-05-21T07:53:06.216Z,69.08
2023-05-21T07:55:36.169Z,67.17
2023-05-21T07:58:04.570Z,67.85
2023-05-21T08:00:44.650Z,69.41
2023-05-21T08:03:13.297Z,68.89
2023-05-21T08:05:41.957Z,68.83
2023-05-21T08:08:10.174Z,68.23
2023-05-21T08:10:39.848Z,67.71
2023-05-21T08:13:08.202Z,67.62
2023-05-21T08:15:36.689Z,67.91
2023-05-21T08:18:05.860Z,68.68
2023-05-21T08:20:34.549Z,68.71
2023-05-21T08:23:02.940Z,66.41
2023-05-21T08:25:31.440Z,67.78
2023-05-21T08:28:01.258Z,68.37
2023-05-21T08:30:29.534Z,65.93
2023-05-21T08:32:57.861Z,65.39
2023-05-21T08:35:26.275Z,66.45
2023-05-21T08:37:54.619Z,64.34
2023-05-21T08:40:22.950Z,64.73
2023-05-21T08:42:51.643Z,67.13
2023-05-21T08:45:23.639Z,65.60
2023-05-21T08:47:57.633Z,65.27
2023-05-21T08:50:28.922Z,65.71
2023-05-21T08:52:59.123Z,64.43
2023-05-21T08:55:27.733Z,64.36
2023-05-21T08:57:56.183Z,66.46
2023-05-21T09:00:25.938Z,67.90
2023-05-21T09:02:56.420Z,67.86
2023-05-21T09:05:26.584Z,66.62
2023-05-21T09:08:02.123Z,70.51
2023-05-21T09:10:35.517Z,66.59
2023-05-21T09:13:04.426Z,66.90
2023-05-21T09:15:34.247Z,64.92
2023-05-21T09:18:02.900Z,63.06
2023-05-21T09:20:31.963Z,63.56
2023-05-21T09:23:04.587Z,61.95
2023-05-21T09:25:33.115Z,63.00
2023-05-21T09:28:01.418Z,62.11
2023-05-21T09:30:31.306Z,64.06
2023-05-21T09:33:03.653Z,64.41
2023-05-21T09:35:32.143Z,62.29
2023-05-21T09:38:02.054Z,57.66
2023-05-21T09:40:30.340Z,60.64
2023-05-21T09:42:58.636Z,58.08
2023-05-21T09:45:28.299Z,59.23
2023-05-21T09:47:57.320Z,58.22
2023-05-21T09:50:28.406Z,55.52
2023-05-21T09:52:58.167Z,56.60
2023-05-21T09:55:27.816Z,58.43
2023-05-21T09:57:56.381Z,58.51
2023-05-21T10:00:27.559Z,57.75
2023-05-21T10:02:56.834Z,57.41
2023-05-21T10:05:28.976Z,56.07
2023-05-21T10:08:02.077Z,55.97
2023-05-21T10:10:31.978Z,55.06
2023-05-21T10:13:02.575Z,55.68
2023-05-21T10:15:37.744Z,52.13
2023-05-21T10:18:06.456Z,56.32
2023-05-21T10:20:38.156Z,57.70
2023-05-21T10:23:06.917Z,55.92
2023-05-21T10:25:36.337Z,54.47
2023-05-21T10:28:05.011Z,52.70
2023-05-21T10:30:33.681Z,56.02
2023-05-21T10:33:03.475Z,53.20
2023-05-21T10:35:33.666Z,53.83
2023-05-21T10:38:05.606Z,54.14
2023-05-21T10:40:34.333Z,53.15
2023-05-21T10:43:32.675Z,51.69
2023-05-21T10:46:20.946Z,49.71
2023-05-21T10:49:02.356Z,51.29
2023-05-21T10:51:43.321Z,50.79
2023-05-21T10:54:39.985Z,53.30
2023-05-21T10:57:24.319Z,56.96
2023-05-21T10:59:53.816Z,54.06
2023-05-21T11:02:22.904Z,53.61
2023-05-21T11:04:59.877Z,56.18
2023-05-21T11:07:53.080Z,51.66
2023-05-21T11:10:39.761Z,53.48
2023-05-21T11:13:14.670Z,51.08
2023-05-21T11:16:08.211Z,54.60
2023-05-21T11:19:06.716Z,54.72
2023-05-21T11:21:37.867Z,55.50
2023-05-21T11:24:11.282Z,54.52
2023-05-21T11:27:05.076Z,50.48
2023-05-21T11:29:48.909Z,52.78
2023-05-21T11:32:20.848Z,50.96
2023-05-21T11:34:50.445Z,51.71
2023-05-21T11:37:30.465Z,51.76
2023-05-21T11:40:17.127Z,49.50
2023-05-21T11:42:52.007Z,51.06
2023-05-21T11:45:21.773Z,50.88
2023-05-21T11:47:51.616Z,51.04
2023-05-21T11:50:20.858Z,53.09
2023-05-21T11:52:50.612Z,52.13
2023-05-21T11:55:23.709Z,52.67
2023-05-21T11:57:55.395Z,50.04
2023-05-21T12:00:23.854Z,47.85
2023-05-21T12:02:53.736Z,50.23
2023-05-21T12:05:23.154Z,47.07
2023-05-21T12:07:51.568Z,46.12
2023-05-21T12:10:24.214Z,46.60
2023-05-21T12:12:57.018Z,48.40
2023-05-21T12:15:27.586Z,49.48
2023-05-21T12:17:57.226Z,47.62
2023-05-21T12:20:28.314Z,49.49
2023-05-21T12:22:59.062Z,43.90
2023-05-21T12:25:27.794Z,46.62
2023-05-21T12:27:58.950Z,47.59
2023-05-21T12:30:27.575Z,45.24
2023-05-21T12:32:59.752Z,46.03
2023-05-21T12:35:28.231Z,45.64
2023-05-21T12:37:56.868Z,46.32
2023-05-21T12:40:38.432Z,47.13
2023-05-21T12:43:09.038Z,46.34
2023-05-21T12:45:39.591Z,46.21
2023-05-21T12:50:40.610Z,42.19
2023-05-21T12:53:10.882Z,44.41
2023-05-21T12:55:39.121Z,42.67
2023-05-21T12:58:09.538Z,38.98
2023-05-21T13:00:38.660Z,40.42
2023-05-21T13:03:07.487Z,41.88
2023-05-21T13:05:36.396Z,39.10
2023-05-21T13:08:04.872Z,40.14
2023-05-21T13:10:33.073Z,39.32
2023-05-21T13:13:02.095Z,39.17
2023-05-21T13:15:31.768Z,41.56
2023-05-21T13:18:01.484Z,43.47
2023-05-21T13:20:30.289Z,37.88
2023-05-21T13:22:58.670Z,37.98
2023-05-21T13:25:29.919Z,38.69
2023-05-21T13:27:59.368Z,39.78
2023-05-21T13:30:27.782Z,37.32
2023-05-21T13:32:57.611Z,35.32
2023-05-21T13:35:26.557Z,36.91
2023-05-21T13:37:55.141Z,34.69
2023-05-21T13:40:23.968Z,34.42
2023-05-21T13:42:52.508Z,35.56
2023-05-21T13:45:24.462Z,37.84
2023-05-21T13:47:52.944Z,38.64
2023-05-21T13:50:22.843Z,35.95
2023-05-21T13:52:51.239Z,36.30
2023-05-21T13:55:19.468Z,36.05
2023-05-21T13:57:47.831Z,36.40
2023-05-21T14:00:16.475Z,36.49
2023-05-21T14:02:45.511Z,35.97
2023-05-21T14:05:14.241Z,34.79
2023-05-21T14:07:43.848Z,34.96
2023-05-21T14:10:13.686Z,33.29
2023-05-21T14:12:42.323Z,33.79
2023-05-21T14:15:11.251Z,33.28
2023-05-21T14:17:40.883Z,32.76
2023-05-21T14:20:10.716Z,34.26
2023-05-21T14:22:39.448Z,33.71
2023-05-21T14:25:09.953Z,31.82
2023-05-21T14:27:39.031Z,32.93
2023-05-21T14:30:08.475Z,32.82
2023-05-21T14:32:36.976Z,31.34
2023-05-21T14:35:06.456Z,32.63
2023-05-21T14:37:34.848Z,31.68
2023-05-21T14:40:03.206Z,31.38
2023-05-21T14:42:32.967Z,30.80
2023-05-21T14:45:17.076Z,31.14
2023-05-21T14:47:48.076Z,32.53
2023-05-21T14:50:17.762Z,32.88
2023-05-21T14:52:46.140Z,32.36
2023-05-21T14:55:16.889Z,34.33
2023-05-21T14:57:46.854Z,32.50
2023-05-21T15:00:15.753Z,35.23
2023-05-21T15:02:44.339Z,33.60
2023-05-21T15:05:12.705Z,34.92
2023-05-21T15:07:41.022Z,35.21
2023-05-21T15:10:10.779Z,36.76
2023-05-21T15:12:39.147Z,35.73
2023-05-21T15:15:10.186Z,37.01
2023-05-21T15:17:38.513Z,36.80
2023-05-21T15:20:09.599Z,35.25
2023-05-21T15:22:38.426Z,36.45
2023-05-21T15:25:07.707Z,37.47
2023-05-21T15:27:36.355Z,37.42
2023-05-21T15:30:05.253Z,40.17
2023-05-21T15:32:34.954Z,38.94
2023-05-21T15:35:03.367Z,40.69
2023-05-21T15:37:33.204Z,41.40
2023-05-21T15:40:01.598Z,42.45
2023-05-21T15:42:32.009Z,43.00
2023-05-21T15:45:00.485Z,43.32
2023-05-21T15:47:28.908Z,42.86
2023-05-21T15:50:00.518Z,40.99
2023-05-21T15:52:28.847Z,40.14
2023-05-21T15:54:57.067Z,38.12
2023-05-21T15:57:25.318Z,37.82
2023-05-21T15:59:54.033Z,38.98
2023-05-21T16:02:22.274Z,40.75
2023-05-21T16:04:52.268Z,39.54
2023-05-21T16:07:24.704Z,40.40
2023-05-21T16:09:52.985Z,42.71
2023-05-21T16:12:21.282Z,44.11
2023-05-21T16:14:51.161Z,46.20
2023-05-21T16:17:19.890Z,47.28
2023-05-21T16:19:48.530Z,48.10
2023-05-21T16:22:17.300Z,48.77
2023-05-21T16:24:47.043Z,48.66
2023-05-21T16:27:15.329Z,50.73
2023-05-21T16:29:43.932Z,51.36
2023-05-21T16:32:14.229Z,51.09
2023-05-21T16:34:42.984Z,51.05
2023-05-21T16:37:11.437Z,51.35
2023-05-21T16:39:39.849Z,48.00
2023-05-21T16:42:09.500Z,44.49
2023-05-21T16:44:38.690Z,41.95
2023-05-21T16:47:07.146Z,40.43
2023-05-21T16:49:35.351Z,39.81
2023-05-21T16:52:04.218Z,38.78
2023-05-21T16:54:32.649Z,37.82
2023-05-21T16:57:01.294Z,36.41
2023-05-21T16:59:31.317Z,37.45
2023-05-21T17:01:59.769Z,41.42
2023-05-21T17:04:28.179Z,43.89
2023-05-21T17:06:56.530Z,44.19
2023-05-21T17:09:24.958Z,46.26
2023-05-21T17:11:53.163Z,47.21
2023-05-21T17:14:33.188Z,48.35
2023-05-21T17:17:03.794Z,49.17
2023-05-21T17:19:32.318Z,49.46
2023-05-21T17:22:00.606Z,50.10
2023-05-21T17:24:28.855Z,50.94
2023-05-21T17:26:57.194Z,53.83
2023-05-21T17:29:25.510Z,54.62
2023-05-21T17:31:53.876Z,56.42
2023-05-21T17:34:26.301Z,56.20
2023-05-21T17:36:55.508Z,58.04
2023-05-21T17:39:24.089Z,60.59
2023-05-21T17:41:54.572Z,59.33
2023-05-21T17:44:22.977Z,60.62
2023-05-21T17:46:52.092Z,60.59
2023-05-21T17:49:20.872Z,60.68
2023-05-21T17:51:50.807Z,63.68
2023-05-21T17:54:20.188Z,65.05
2023-05-21T17:56:48.502Z,65.53
2023-05-21T17:59:17.310Z,65.65
2023-05-21T18:01:45.589Z,65.87
2023-05-21T18:04:14.039Z,66.84
2023-05-21T18:06:42.360Z,66.87
2023-05-21T18:09:14.506Z,68.19
2023-05-21T18:11:44.616Z,68.26
2023-05-21T18:14:13.028Z,69.33
2023-05-21T18:16:42.169Z,70.67
2023-05-21T18:19:10.845Z,71.39
2023-05-21T18:21:39.435Z,71.04
2023-05-21T18:24:08.509Z,69.58
2023-05-21T18:26:38.281Z,71.53
2023-05-21T18:29:06.653Z,72.91
2023-05-21T18:31:35.039Z,72.12
2023-05-21T18:34:03.590Z,72.46
2023-05-21T18:36:38.573Z,72.63
2023-05-21T18:39:07.919Z,72.26
2023-05-21T18:41:38.380Z,72.56
2023-05-21T18:44:07.327Z,73.50
2023-05-21T18:46:35.836Z,75.52
2023-05-21T18:49:04.510Z,76.76
2023-05-21T18:51:32.933Z,77.78
2023-05-21T18:54:01.201Z,77.48
2023-05-21T18:56:29.582Z,78.14
2023-05-21T18:58:59.465Z,79.19
2023-05-21T19:01:27.961Z,79.93
2023-05-21T19:03:56.196Z,79.72
2023-05-21T19:06:25.761Z,79.78
2023-05-21T19:08:54.353Z,80.14
2023-05-21T19:11:23.802Z,80.41
2023-05-21T19:13:52.406Z,80.72
2023-05-21T19:16:22.284Z,81.23
2023-05-21T19:18:50.741Z,81.15
2023-05-21T19:21:20.033Z,82.37
2023-05-21T19:23:53.724Z,82.55
2023-05-21T19:26:23.534Z,84.78
2023-05-21T19:28:53.914Z,84.54
2023-05-21T19:31:25.429Z,84.62
2023-05-21T19:33:54.112Z,84.00
2023-05-21T19:36:23.054Z,85.41
2023-05-21T19:38:51.965Z,84.32
2023-05-21T19:41:21.721Z,84.44
2023-05-21T19:43:50.354Z,84.86
2023-05-21T19:46:20.485Z,85.66
2023-05-21T19:48:52.110Z,85.13
2023-05-21T19:51:20.457Z,84.99
2023-05-21T19:53:48.731Z,84.46
2023-05-21T19:56:17.717Z,85.61
2023-05-21T19:58:48.160Z,87.40
2023-05-21T20:01:17.513Z,85.64
2023-05-21T20:03:46.393Z,85.98
2023-05-21T20:06:19.181Z,87.00
2023-05-21T20:08:47.840Z,87.54
2023-05-21T20:11:16.197Z,88.33
2023-05-21T20:13:48.633Z,88.57
2023-05-21T20:16:18.563Z,88.62
2023-05-21T20:18:47.503Z,88.54
2023-05-21T20:21:18.846Z,87.75
2023-05-21T20:23:47.378Z,88.18
2023-05-21T20:26:16.416Z,89.81
2023-05-21T20:28:44.853Z,90.75
2023-05-21T20:31:13.167Z,91.18
2023-05-21T20:33:42.128Z,91.04
2023-05-21T20:36:10.679Z,90.31
2023-05-21T20:38:42.363Z,89.62
2023-05-21T20:41:10.740Z,90.80
2023-05-21T20:43:39.065Z,91.52
2023-05-21T20:46:07.987Z,90.71
2023-05-21T20:48:38.019Z,89.62
2023-05-21T20:51:06.702Z,89.91
2023-05-21T20:53:34.944Z,90.15
2023-05-21T20:56:08.350Z,90.55
2023-05-21T20:58:36.702Z,89.21
2023-05-21T21:01:05.064Z,89.07
2023-05-21T21:03:34.420Z,91.11
2023-05-21T21:06:03.305Z,92.94
2023-05-21T21:08:31.555Z,93.47
2023-05-21T21:10:59.797Z,93.54
2023-05-21T21:13:29.466Z,92.58
2023-05-21T21:15:57.751Z,93.34
2023-05-21T21:18:26.010Z,94.47
2023-05-21T21:20:54.451Z,94.61
2023-05-21T21:23:24.591Z,92.89
2023-05-21T21:25:52.970Z,93.01
2023-05-21T21:28:21.213Z,91.34
2023-05-21T21:30:51.201Z,92.99
2023-05-21T21:33:19.611Z,94.17
2023-05-21T21:35:47.942Z,93.83
2023-05-21T21:38:16.278Z,94.12
2023-05-21T21:40:44.497Z,94.45
2023-05-21T21:43:13.009Z,95.45
2023-05-21T21:45:41.464Z,94.71
2023-05-21T21:48:11.485Z,95.02
2023-05-21T21:50:40.047Z,93.23
2023-05-21T21:53:10.058Z,94.10
2023-05-21T21:55:38.251Z,96.06
2023-05-21T21:58:06.999Z,94.45
2023-05-21T22:00:35.475Z,95.00
2023-05-21T22:03:03.785Z,94.89
2023-05-21T22:05:34.193Z,95.18
2023-05-21T22:08:03.300Z,97.28
2023-05-21T22:10:33.647Z,96.95
2023-05-21T22:13:02.870Z,96.61
2023-05-21T22:15:32.407Z,95.56
2023-05-21T22:18:02.466Z,94.64
2023-05-21T22:20:31.059Z,94.43
2023-05-21T22:23:00.877Z,92.14
2023-05-21T22:25:29.169Z,93.12
2023-05-21T22:27:57.462Z,93.81
2023-05-21T22:30:25.785Z,94.88
2023-05-21T22:32:54.190Z,97.14
2023-05-21T22:35:22.452Z,97.20
2023-05-21T22:37:50.883Z,98.17
2023-05-21T22:40:20.753Z,98.01
2023-05-21T22:42:49.343Z,97.89
2023-05-21T22:45:19.078Z,97.75
2023-05-21T22:47:48.303Z,97.96
2023-05-21T22:50:16.792Z,96.96
2023-05-21T22:52:45.210Z,97.29
2023-05-21T22:55:13.519Z,97.61
2023-05-21T22:57:43.341Z,98.04
2023-05-21T23:00:12.466Z,96.94
2023-05-21T23:02:40.927Z,97.33
2023-05-21T23:05:10.031Z,97.09
2023-05-21T23:07:38.405Z,97.98
2023-05-21T23:10:07.416Z,99.76
2023-05-21T23:12:35.801Z,100.00
2023-05-21T23:15:07.518Z,100.00
2023-05-21T23:17:36.115Z,100.00
2023-05-21T23:20:04.444Z,100.00
2023-05-21T23:22:32.854Z,100.00
2023-05-21T23:25:01.194Z,99.66
2023-05-21T23:27:29.585Z,99.56
2023-05-21T23:29:57.884Z,99.79
2023-05-21T23:32:27.653Z,98.96
2023-05-21T23:34:57.153Z,98.30
2023-05-21T23:37:25.442Z,99.56
2023-05-21T23:39:53.954Z,100.00
2023-05-21T23:42:22.255Z,100.00
2023-05-21T23:44:50.433Z,100.00
2023-05-21T23:47:18.598Z,100.00
2023-05-21T23:49:48.256Z,100.00
2023-05-21T23:52:17.452Z,100.00
2023-05-21T23:54:45.655Z,100.00
2023-05-21T23:57:14.476Z,100.00
2023-05-21T23:59:42.750Z,100.00
